sensor_id;sensor_type;location;lat;lon;timestamp;temperature;humidity
37844;DHT22;63793;57.632;18.292;2023-02-28T00:00:37;1.90;99.90
37844;DHT22;63793;57.632;18.292;2023-02-28T00:03:04;1.80;99.90
37844;DHT22;63793;57.632;18.292;2023-02-28T00:05:31;1.80;99.90
37844;DHT22;63793;57.632;18.292;2023-02-28T00:07:58;1.80;99.90
37844;DHT22;63793;57.632;18.292;2023-02-28T00:10:30;1.80;99.90
37844;DHT22;63793;57.632;18.292;2023-02-28T00:13:03;1.80;99.90
37844;DHT22;63793;57.632;18.292;2023-02-28T00:15:31;1.70;99.90
37844;DHT22;63793;57.632;18.292;2023-02-28T00:17:59;1.70;99.90
37844;DHT22;63793;57.632;18.292;2023-02-28T00:20:26;1.70;99.90
37844;DHT22;63793;57.632;18.292;2023-02-28T00:22:53;1.80;99.90
37844;DHT22;63793;57.632;18.292;2023-02-28T00:25:23;1.80;99.90
37844;DHT22;63793;57.632;18.292;2023-02-28T00:27:50;1.90;99.90
37844;DHT22;63793;57.632;18.292;2023-02-28T00:30:20;1.90;99.90
37844;DHT22;63793;57.632;18.292;2023-02-28T00:32:48;2.00;99.90
37844;DHT22;63793;57.632;18.292;2023-02-28T00:35:16;2.00;99.90
37844;DHT22;63793;57.632;18.292;2023-02-28T00:37:43;2.00;99.90
37844;DHT22;63793;57.632;18.292;2023-02-28T00:40:11;2.00;99.90
37844;DHT22;63793;57.632;18.292;2023-02-28T00:42:39;2.00;99.90
37844;DHT22;63793;57.632;18.292;2023-02-28T00:45:07;2.10;99.90
37844;DHT22;63793;57.632;18.292;2023-02-28T00:47:37;2.00;99.90
37844;DHT22;63793;57.632;18.292;2023-02-28T00:50:05;2.00;99.90
37844;DHT22;63793;57.632;18.292;2023-02-28T00:52:32;2.00;99.90
37844;DHT22;63793;57.632;18.292;2023-02-28T00:54:59;2.00;99.90
37844;DHT22;63793;57.632;18.292;2023-02-28T00:57:26;1.90;99.90
37844;DHT22;63793;57.632;18.292;2023-02-28T00:59:53;1.90;99.90
37844;DHT22;63793;57.632;18.292;2023-02-28T01:02:22;1.90;99.90
37844;DHT22;63793;57.632;18.292;2023-02-28T01:04:51;1.90;99.90
37844;DHT22;63793;57.632;18.292;2023-02-28T01:07:18;1.90;99.90
37844;DHT22;63793;57.632;18.292;2023-02-28T01:09:45;1.90;99.90
37844;DHT22;63793;57.632;18.292;2023-02-28T01:12:12;1.90;99.90
37844;DHT22;63793;57.632;18.292;2023-02-28T01:14:39;1.90;99.90
37844;DHT22;63793;57.632;18.292;2023-02-28T01:17:06;2.00;99.90
37844;DHT22;63793;57.632;18.292;2023-02-28T01:19:33;2.00;99.90
37844;DHT22;63793;57.632;18.292;2023-02-28T01:22:03;2.10;99.90
37844;DHT22;63793;57.632;18.292;2023-02-28T01:24:30;2.10;99.90
37844;DHT22;63793;57.632;18.292;2023-02-28T01:27:00;2.20;99.90
37844;DHT22;63793;57.632;18.292;2023-02-28T01:29:26;2.10;99.90
37844;DHT22;63793;57.632;18.292;2023-02-28T01:31:53;2.10;99.90
37844;DHT22;63793;57.632;18.292;2023-02-28T01:34:20;2.10;99.90
37844;DHT22;63793;57.632;18.292;2023-02-28T01:36:47;2.10;99.90
37844;DHT22;63793;57.632;18.292;2023-02-28T01:39:14;2.10;99.90
37844;DHT22;63793;57.632;18.292;2023-02-28T01:41:41;2.10;99.90
37844;DHT22;63793;57.632;18.292;2023-02-28T01:47:14;2.10;99.90
37844;DHT22;63793;57.632;18.292;2023-02-28T01:49:42;2.10;99.90
37844;DHT22;63793;57.632;18.292;2023-02-28T01:52:10;2.10;99.90
37844;DHT22;63793;57.632;18.292;2023-02-28T01:54:50;2.10;99.90
37844;DHT22;63793;57.632;18.292;2023-02-28T01:57:25;2.20;99.90
37844;DHT22;63793;57.632;18.292;2023-02-28T01:59:59;2.10;99.90
37844;DHT22;63793;57.632;18.292;2023-02-28T02:02:28;2.10;99.90
37844;DHT22;63793;57.632;18.292;2023-02-28T02:05:06;2.20;99.90
37844;DHT22;63793;57.632;18.292;2023-02-28T02:07:37;2.20;99.90
37844;DHT22;63793;57.632;18.292;2023-02-28T02:10:13;2.20;99.90
37844;DHT22;63793;57.632;18.292;2023-02-28T02:27:06;2.20;99.90
37844;DHT22;63793;57.632;18.292;2023-02-28T02:30:02;2.10;99.90
37844;DHT22;63793;57.632;18.292;2023-02-28T02:35:27;2.10;99.90
37844;DHT22;63793;57.632;18.292;2023-02-28T02:38:09;2.10;99.90
37844;DHT22;63793;57.632;18.292;2023-02-28T02:41:04;2.10;99.90
37844;DHT22;63793;57.632;18.292;2023-02-28T02:43:44;2.10;99.90
37844;DHT22;63793;57.632;18.292;2023-02-28T02:46:24;2.00;99.90
37844;DHT22;63793;57.632;18.292;2023-02-28T02:48:54;2.00;99.90
37844;DHT22;63793;57.632;18.292;2023-02-28T02:51:24;2.00;99.90
37844;DHT22;63793;57.632;18.292;2023-02-28T02:54:22;2.00;99.90
37844;DHT22;63793;57.632;18.292;2023-02-28T02:56:50;2.00;99.90
37844;DHT22;63793;57.632;18.292;2023-02-28T02:59:21;2.00;99.90
37844;DHT22;63793;57.632;18.292;2023-02-28T03:01:53;2.00;99.90
37844;DHT22;63793;57.632;18.292;2023-02-28T03:04:23;2.00;99.90
37844;DHT22;63793;57.632;18.292;2023-02-28T03:06:51;2.00;99.90
37844;DHT22;63793;57.632;18.292;2023-02-28T03:09:22;2.00;99.90
37844;DHT22;63793;57.632;18.292;2023-02-28T03:11:51;2.00;99.90
37844;DHT22;63793;57.632;18.292;2023-02-28T03:17:51;2.00;99.90
37844;DHT22;63793;57.632;18.292;2023-02-28T03:20:27;2.00;99.90
37844;DHT22;63793;57.632;18.292;2023-02-28T03:25:52;2.00;99.90
37844;DHT22;63793;57.632;18.292;2023-02-28T03:28:32;2.00;99.90
37844;DHT22;63793;57.632;18.292;2023-02-28T03:33:43;2.00;99.90
37844;DHT22;63793;57.632;18.292;2023-02-28T03:36:20;2.00;99.90
37844;DHT22;63793;57.632;18.292;2023-02-28T03:38:58;2.00;99.90
37844;DHT22;63793;57.632;18.292;2023-02-28T03:41:43;2.00;99.90
37844;DHT22;63793;57.632;18.292;2023-02-28T03:44:35;2.00;99.90
37844;DHT22;63793;57.632;18.292;2023-02-28T03:47:07;2.00;99.90
37844;DHT22;63793;57.632;18.292;2023-02-28T03:49:45;1.90;99.90
37844;DHT22;63793;57.632;18.292;2023-02-28T03:52:14;1.90;99.90
37844;DHT22;63793;57.632;18.292;2023-02-28T03:54:48;1.90;99.90
37844;DHT22;63793;57.632;18.292;2023-02-28T03:57:28;1.90;99.90
37844;DHT22;63793;57.632;18.292;2023-02-28T04:00:03;1.90;99.90
37844;DHT22;63793;57.632;18.292;2023-02-28T04:02:38;1.90;99.90
37844;DHT22;63793;57.632;18.292;2023-02-28T04:05:07;1.90;99.90
37844;DHT22;63793;57.632;18.292;2023-02-28T04:07:34;1.90;99.90
37844;DHT22;63793;57.632;18.292;2023-02-28T04:10:02;1.90;99.90
37844;DHT22;63793;57.632;18.292;2023-02-28T04:12:29;1.90;99.90
37844;DHT22;63793;57.632;18.292;2023-02-28T04:14:56;1.90;99.90
37844;DHT22;63793;57.632;18.292;2023-02-28T04:17:23;1.80;99.90
37844;DHT22;63793;57.632;18.292;2023-02-28T04:19:50;1.80;99.90
37844;DHT22;63793;57.632;18.292;2023-02-28T04:22:17;1.80;99.90
37844;DHT22;63793;57.632;18.292;2023-02-28T04:24:44;1.70;99.90
37844;DHT22;63793;57.632;18.292;2023-02-28T04:27:11;1.80;99.90
37844;DHT22;63793;57.632;18.292;2023-02-28T04:29:38;1.80;99.90
37844;DHT22;63793;57.632;18.292;2023-02-28T04:32:05;1.80;99.90
37844;DHT22;63793;57.632;18.292;2023-02-28T04:34:32;1.80;99.90
37844;DHT22;63793;57.632;18.292;2023-02-28T04:36:59;1.80;99.90
37844;DHT22;63793;57.632;18.292;2023-02-28T04:39:43;1.80;99.90
37844;DHT22;63793;57.632;18.292;2023-02-28T04:42:11;1.90;99.90
37844;DHT22;63793;57.632;18.292;2023-02-28T04:44:38;1.90;99.90
37844;DHT22;63793;57.632;18.292;2023-02-28T04:47:05;1.90;99.90
37844;DHT22;63793;57.632;18.292;2023-02-28T04:49:33;1.90;99.90
37844;DHT22;63793;57.632;18.292;2023-02-28T04:52:00;2.00;99.90
37844;DHT22;63793;57.632;18.292;2023-02-28T04:54:27;1.90;99.90
37844;DHT22;63793;57.632;18.292;2023-02-28T04:56:55;1.90;99.90
37844;DHT22;63793;57.632;18.292;2023-02-28T04:59:22;1.90;99.90
37844;DHT22;63793;57.632;18.292;2023-02-28T05:01:49;1.90;99.90
37844;DHT22;63793;57.632;18.292;2023-02-28T05:04:16;1.90;99.90
37844;DHT22;63793;57.632;18.292;2023-02-28T05:06:44;1.90;99.90
37844;DHT22;63793;57.632;18.292;2023-02-28T05:09:11;1.90;99.90
37844;DHT22;63793;57.632;18.292;2023-02-28T05:11:39;1.90;99.90
37844;DHT22;63793;57.632;18.292;2023-02-28T05:14:10;1.90;99.90
37844;DHT22;63793;57.632;18.292;2023-02-28T05:16:37;1.90;99.90
37844;DHT22;63793;57.632;18.292;2023-02-28T05:19:04;1.90;99.90
37844;DHT22;63793;57.632;18.292;2023-02-28T05:21:34;1.90;99.90
37844;DHT22;63793;57.632;18.292;2023-02-28T05:24:04;1.90;99.90
37844;DHT22;63793;57.632;18.292;2023-02-28T05:26:35;1.90;99.90
37844;DHT22;63793;57.632;18.292;2023-02-28T05:29:02;1.80;99.90
37844;DHT22;63793;57.632;18.292;2023-02-28T05:31:29;1.90;99.90
37844;DHT22;63793;57.632;18.292;2023-02-28T05:33:56;1.90;99.90
37844;DHT22;63793;57.632;18.292;2023-02-28T05:36:24;1.90;99.90
37844;DHT22;63793;57.632;18.292;2023-02-28T05:38:51;1.80;99.90
37844;DHT22;63793;57.632;18.292;2023-02-28T05:41:19;1.80;99.90
37844;DHT22;63793;57.632;18.292;2023-02-28T05:43:47;1.90;99.90
37844;DHT22;63793;57.632;18.292;2023-02-28T05:46:15;1.80;99.90
37844;DHT22;63793;57.632;18.292;2023-02-28T05:48:46;1.80;99.90
37844;DHT22;63793;57.632;18.292;2023-02-28T05:51:14;1.80;99.90
37844;DHT22;63793;57.632;18.292;2023-02-28T05:53:41;1.80;99.90
37844;DHT22;63793;57.632;18.292;2023-02-28T05:56:08;1.80;99.90
37844;DHT22;63793;57.632;18.292;2023-02-28T05:58:35;1.90;99.90
37844;DHT22;63793;57.632;18.292;2023-02-28T06:01:21;1.90;99.90
37844;DHT22;63793;57.632;18.292;2023-02-28T06:03:49;1.80;99.90
37844;DHT22;63793;57.632;18.292;2023-02-28T06:06:16;1.80;99.90
37844;DHT22;63793;57.632;18.292;2023-02-28T06:08:43;1.80;99.90
37844;DHT22;63793;57.632;18.292;2023-02-28T06:11:11;1.90;99.90
37844;DHT22;63793;57.632;18.292;2023-02-28T06:13:38;1.90;99.90
37844;DHT22;63793;57.632;18.292;2023-02-28T06:16:05;1.90;99.90
37844;DHT22;63793;57.632;18.292;2023-02-28T06:18:32;1.90;99.90
37844;DHT22;63793;57.632;18.292;2023-02-28T06:20:59;1.90;99.90
37844;DHT22;63793;57.632;18.292;2023-02-28T06:23:26;1.90;99.90
37844;DHT22;63793;57.632;18.292;2023-02-28T06:25:53;1.90;99.90
37844;DHT22;63793;57.632;18.292;2023-02-28T06:28:25;1.90;99.90
37844;DHT22;63793;57.632;18.292;2023-02-28T06:30:52;1.90;99.90
37844;DHT22;63793;57.632;18.292;2023-02-28T06:33:19;1.90;99.90
37844;DHT22;63793;57.632;18.292;2023-02-28T06:35:50;2.00;99.90
37844;DHT22;63793;57.632;18.292;2023-02-28T06:38:17;2.00;99.90
37844;DHT22;63793;57.632;18.292;2023-02-28T06:40:44;2.00;99.90
37844;DHT22;63793;57.632;18.292;2023-02-28T06:43:19;2.00;99.90
37844;DHT22;63793;57.632;18.292;2023-02-28T06:45:46;2.00;99.90
37844;DHT22;63793;57.632;18.292;2023-02-28T06:48:13;2.00;99.90
37844;DHT22;63793;57.632;18.292;2023-02-28T06:50:40;2.10;99.90
37844;DHT22;63793;57.632;18.292;2023-02-28T06:53:07;2.10;99.90
37844;DHT22;63793;57.632;18.292;2023-02-28T06:55:34;2.10;99.90
37844;DHT22;63793;57.632;18.292;2023-02-28T06:58:01;2.10;99.90
37844;DHT22;63793;57.632;18.292;2023-02-28T07:00:28;2.20;99.90
37844;DHT22;63793;57.632;18.292;2023-02-28T07:02:55;2.20;99.90
37844;DHT22;63793;57.632;18.292;2023-02-28T07:05:22;2.20;99.90
37844;DHT22;63793;57.632;18.292;2023-02-28T07:07:49;2.30;99.90
37844;DHT22;63793;57.632;18.292;2023-02-28T07:10:16;2.30;99.90
37844;DHT22;63793;57.632;18.292;2023-02-28T07:12:46;2.40;99.90
37844;DHT22;63793;57.632;18.292;2023-02-28T07:15:13;2.40;99.90
37844;DHT22;63793;57.632;18.292;2023-02-28T07:17:39;2.40;99.90
37844;DHT22;63793;57.632;18.292;2023-02-28T07:20:07;2.40;99.90
37844;DHT22;63793;57.632;18.292;2023-02-28T07:22:34;2.50;99.90
37844;DHT22;63793;57.632;18.292;2023-02-28T07:25:01;2.50;99.90
37844;DHT22;63793;57.632;18.292;2023-02-28T07:27:28;2.60;99.90
37844;DHT22;63793;57.632;18.292;2023-02-28T07:29:55;2.60;99.90
37844;DHT22;63793;57.632;18.292;2023-02-28T07:32:22;2.60;99.90
37844;DHT22;63793;57.632;18.292;2023-02-28T07:34:49;2.60;99.90
37844;DHT22;63793;57.632;18.292;2023-02-28T07:37:16;2.60;99.90
37844;DHT22;63793;57.632;18.292;2023-02-28T07:39:43;2.60;99.90
37844;DHT22;63793;57.632;18.292;2023-02-28T07:42:10;2.70;99.90
37844;DHT22;63793;57.632;18.292;2023-02-28T07:44:39;2.70;99.90
37844;DHT22;63793;57.632;18.292;2023-02-28T07:47:08;2.70;99.90
37844;DHT22;63793;57.632;18.292;2023-02-28T07:49:38;2.70;99.90
37844;DHT22;63793;57.632;18.292;2023-02-28T07:52:06;2.80;99.90
37844;DHT22;63793;57.632;18.292;2023-02-28T07:54:34;2.80;99.90
37844;DHT22;63793;57.632;18.292;2023-02-28T07:57:01;2.80;99.90
37844;DHT22;63793;57.632;18.292;2023-02-28T07:59:27;2.80;99.90
37844;DHT22;63793;57.632;18.292;2023-02-28T08:01:58;2.90;99.90
37844;DHT22;63793;57.632;18.292;2023-02-28T08:04:26;2.90;99.90
37844;DHT22;63793;57.632;18.292;2023-02-28T08:06:53;2.90;99.90
37844;DHT22;63793;57.632;18.292;2023-02-28T08:09:20;2.90;99.90
37844;DHT22;63793;57.632;18.292;2023-02-28T08:11:47;2.90;99.90
37844;DHT22;63793;57.632;18.292;2023-02-28T08:14:13;2.90;99.90
37844;DHT22;63793;57.632;18.292;2023-02-28T08:16:40;3.00;99.90
37844;DHT22;63793;57.632;18.292;2023-02-28T08:19:09;3.00;99.90
37844;DHT22;63793;57.632;18.292;2023-02-28T08:21:36;3.00;99.90
37844;DHT22;63793;57.632;18.292;2023-02-28T08:24:03;3.00;99.90
37844;DHT22;63793;57.632;18.292;2023-02-28T08:26:30;3.00;99.90
37844;DHT22;63793;57.632;18.292;2023-02-28T08:28:57;3.10;99.90
37844;DHT22;63793;57.632;18.292;2023-02-28T08:31:27;3.10;99.90
37844;DHT22;63793;57.632;18.292;2023-02-28T08:33:54;3.10;99.90
37844;DHT22;63793;57.632;18.292;2023-02-28T08:36:25;3.10;99.90
37844;DHT22;63793;57.632;18.292;2023-02-28T08:38:56;3.10;99.90
37844;DHT22;63793;57.632;18.292;2023-02-28T08:41:23;3.20;99.90
37844;DHT22;63793;57.632;18.292;2023-02-28T08:43:50;3.20;99.90
37844;DHT22;63793;57.632;18.292;2023-02-28T08:46:17;3.30;99.90
37844;DHT22;63793;57.632;18.292;2023-02-28T08:48:44;3.40;99.90
37844;DHT22;63793;57.632;18.292;2023-02-28T08:51:16;3.40;99.90
37844;DHT22;63793;57.632;18.292;2023-02-28T08:53:45;3.40;99.90
37844;DHT22;63793;57.632;18.292;2023-02-28T08:56:13;3.40;99.90
37844;DHT22;63793;57.632;18.292;2023-02-28T08:58:41;3.40;99.90
37844;DHT22;63793;57.632;18.292;2023-02-28T09:03:40;3.50;99.90
37844;DHT22;63793;57.632;18.292;2023-02-28T09:06:11;3.50;99.90
37844;DHT22;63793;57.632;18.292;2023-02-28T09:08:38;3.50;99.90
37844;DHT22;63793;57.632;18.292;2023-02-28T09:11:07;3.50;99.90
37844;DHT22;63793;57.632;18.292;2023-02-28T09:13:34;3.50;99.90
37844;DHT22;63793;57.632;18.292;2023-02-28T09:16:04;3.50;99.90
37844;DHT22;63793;57.632;18.292;2023-02-28T09:18:33;3.60;99.90
37844;DHT22;63793;57.632;18.292;2023-02-28T09:21:09;3.60;99.90
37844;DHT22;63793;57.632;18.292;2023-02-28T09:23:38;3.60;99.90
37844;DHT22;63793;57.632;18.292;2023-02-28T09:26:05;3.60;99.90
37844;DHT22;63793;57.632;18.292;2023-02-28T09:28:32;3.60;99.90
37844;DHT22;63793;57.632;18.292;2023-02-28T09:30:59;3.70;99.90
37844;DHT22;63793;57.632;18.292;2023-02-28T09:33:26;3.70;99.90
37844;DHT22;63793;57.632;18.292;2023-02-28T09:35:59;3.70;99.90
37844;DHT22;63793;57.632;18.292;2023-02-28T09:38:27;3.70;99.90
37844;DHT22;63793;57.632;18.292;2023-02-28T09:41:04;3.70;99.90
37844;DHT22;63793;57.632;18.292;2023-02-28T09:43:38;3.70;99.90
37844;DHT22;63793;57.632;18.292;2023-02-28T09:46:30;3.70;99.90
37844;DHT22;63793;57.632;18.292;2023-02-28T09:49:02;3.80;99.90
37844;DHT22;63793;57.632;18.292;2023-02-28T09:54:01;3.90;99.90
37844;DHT22;63793;57.632;18.292;2023-02-28T09:56:34;3.90;99.90
37844;DHT22;63793;57.632;18.292;2023-02-28T10:04:36;4.00;99.90
37844;DHT22;63793;57.632;18.292;2023-02-28T10:07:36;4.10;99.90
37844;DHT22;63793;57.632;18.292;2023-02-28T10:10:00;4.10;99.90
37844;DHT22;63793;57.632;18.292;2023-02-28T10:12:29;4.10;99.90
37844;DHT22;63793;57.632;18.292;2023-02-28T10:14:59;4.10;99.90
37844;DHT22;63793;57.632;18.292;2023-02-28T10:17:29;4.10;99.90
37844;DHT22;63793;57.632;18.292;2023-02-28T10:20:23;4.10;99.90
37844;DHT22;63793;57.632;18.292;2023-02-28T10:23:23;4.10;99.90
37844;DHT22;63793;57.632;18.292;2023-02-28T10:26:10;3.90;99.90
37844;DHT22;63793;57.632;18.292;2023-02-28T10:28:38;3.90;99.90
37844;DHT22;63793;57.632;18.292;2023-02-28T10:31:05;3.80;99.90
37844;DHT22;63793;57.632;18.292;2023-02-28T10:33:35;3.90;99.90
37844;DHT22;63793;57.632;18.292;2023-02-28T10:36:04;3.90;99.90
37844;DHT22;63793;57.632;18.292;2023-02-28T10:38:34;3.90;99.90
37844;DHT22;63793;57.632;18.292;2023-02-28T10:41:27;3.90;99.90
37844;DHT22;63793;57.632;18.292;2023-02-28T10:44:22;3.90;99.90
37844;DHT22;63793;57.632;18.292;2023-02-28T10:46:50;4.00;99.90
37844;DHT22;63793;57.632;18.292;2023-02-28T10:49:23;4.10;99.90
37844;DHT22;63793;57.632;18.292;2023-02-28T10:51:54;4.20;99.90
37844;DHT22;63793;57.632;18.292;2023-02-28T10:54:26;4.40;99.90
37844;DHT22;63793;57.632;18.292;2023-02-28T10:57:18;4.30;99.90
37844;DHT22;63793;57.632;18.292;2023-02-28T10:59:45;4.30;99.90
37844;DHT22;63793;57.632;18.292;2023-02-28T11:02:35;4.30;99.90
37844;DHT22;63793;57.632;18.292;2023-02-28T11:05:26;4.30;99.90
37844;DHT22;63793;57.632;18.292;2023-02-28T11:07:56;4.30;99.90
37844;DHT22;63793;57.632;18.292;2023-02-28T11:10:26;4.20;99.90
37844;DHT22;63793;57.632;18.292;2023-02-28T11:12:56;4.10;99.90
37844;DHT22;63793;57.632;18.292;2023-02-28T11:15:35;4.20;99.90
37844;DHT22;63793;57.632;18.292;2023-02-28T11:21:08;4.20;99.90
37844;DHT22;63793;57.632;18.292;2023-02-28T11:23:37;4.30;99.90
37844;DHT22;63793;57.632;18.292;2023-02-28T11:26:07;4.30;99.90
37844;DHT22;63793;57.632;18.292;2023-02-28T11:28:42;4.30;99.90
37844;DHT22;63793;57.632;18.292;2023-02-28T11:33:47;4.20;99.90
37844;DHT22;63793;57.632;18.292;2023-02-28T11:36:24;4.20;99.90
37844;DHT22;63793;57.632;18.292;2023-02-28T11:38:55;4.30;99.90
37844;DHT22;63793;57.632;18.292;2023-02-28T11:41:42;4.40;99.90
37844;DHT22;63793;57.632;18.292;2023-02-28T11:46:56;4.30;99.90
37844;DHT22;63793;57.632;18.292;2023-02-28T11:55:36;4.50;99.90
37844;DHT22;63793;57.632;18.292;2023-02-28T11:58:16;4.50;99.90
37844;DHT22;63793;57.632;18.292;2023-02-28T12:01:45;4.60;99.90
37844;DHT22;63793;57.632;18.292;2023-02-28T12:12:29;4.40;99.90
37844;DHT22;63793;57.632;18.292;2023-02-28T12:15:17;4.40;99.90
37844;DHT22;63793;57.632;18.292;2023-02-28T12:18:09;4.30;99.90
37844;DHT22;63793;57.632;18.292;2023-02-28T12:26:53;4.30;99.90
37844;DHT22;63793;57.632;18.292;2023-02-28T12:29:30;4.30;99.90
37844;DHT22;63793;57.632;18.292;2023-02-28T12:32:16;4.30;99.90
37844;DHT22;63793;57.632;18.292;2023-02-28T12:35:34;4.30;99.90
37844;DHT22;63793;57.632;18.292;2023-02-28T12:40:17;4.60;99.90
37844;DHT22;63793;57.632;18.292;2023-02-28T12:42:50;4.60;99.90
37844;DHT22;63793;57.632;18.292;2023-02-28T12:45:23;4.60;99.90
37844;DHT22;63793;57.632;18.292;2023-02-28T12:47:55;4.70;99.90
37844;DHT22;63793;57.632;18.292;2023-02-28T12:50:25;4.80;99.90
37844;DHT22;63793;57.632;18.292;2023-02-28T12:53:21;4.80;99.90
37844;DHT22;63793;57.632;18.292;2023-02-28T12:58:51;5.00;99.90
37844;DHT22;63793;57.632;18.292;2023-02-28T13:01:42;5.00;99.90
37844;DHT22;63793;57.632;18.292;2023-02-28T13:09:22;5.00;99.90
37844;DHT22;63793;57.632;18.292;2023-02-28T13:11:51;4.90;99.90
37844;DHT22;63793;57.632;18.292;2023-02-28T13:14:29;5.00;99.90
37844;DHT22;63793;57.632;18.292;2023-02-28T13:17:09;5.00;99.90
37844;DHT22;63793;57.632;18.292;2023-02-28T13:20:16;5.00;99.90
37844;DHT22;63793;57.632;18.292;2023-02-28T13:22:46;4.90;99.90
37844;DHT22;63793;57.632;18.292;2023-02-28T13:28:10;4.90;99.90
37844;DHT22;63793;57.632;18.292;2023-02-28T13:33:37;5.00;99.90
37844;DHT22;63793;57.632;18.292;2023-02-28T13:36:31;5.00;99.90
37844;DHT22;63793;57.632;18.292;2023-02-28T13:39:55;5.20;99.90
37844;DHT22;63793;57.632;18.292;2023-02-28T13:47:42;5.30;99.90
37844;DHT22;63793;57.632;18.292;2023-02-28T14:01:29;5.40;99.90
37844;DHT22;63793;57.632;18.292;2023-02-28T14:06:51;5.60;99.90
37844;DHT22;63793;57.632;18.292;2023-02-28T14:09:25;5.60;99.90
37844;DHT22;63793;57.632;18.292;2023-02-28T14:11:54;5.50;99.90
37844;DHT22;63793;57.632;18.292;2023-02-28T14:17:05;5.60;99.90
37844;DHT22;63793;57.632;18.292;2023-02-28T14:19:36;5.60;99.90
37844;DHT22;63793;57.632;18.292;2023-02-28T14:36:16;5.80;99.90
37844;DHT22;63793;57.632;18.292;2023-02-28T14:38:53;5.80;99.90
37844;DHT22;63793;57.632;18.292;2023-02-28T14:41:36;5.70;99.90
37844;DHT22;63793;57.632;18.292;2023-02-28T14:44:23;5.60;99.90
37844;DHT22;63793;57.632;18.292;2023-02-28T14:46:56;5.40;99.90
37844;DHT22;63793;57.632;18.292;2023-02-28T14:49:28;5.40;99.90
37844;DHT22;63793;57.632;18.292;2023-02-28T14:54:40;5.30;99.90
37844;DHT22;63793;57.632;18.292;2023-02-28T14:57:28;5.30;99.90
37844;DHT22;63793;57.632;18.292;2023-02-28T15:02:34;5.20;99.90
37844;DHT22;63793;57.632;18.292;2023-02-28T15:05:19;5.20;99.90
37844;DHT22;63793;57.632;18.292;2023-02-28T15:07:49;5.20;99.90
37844;DHT22;63793;57.632;18.292;2023-02-28T15:10:27;5.20;99.90
37844;DHT22;63793;57.632;18.292;2023-02-28T15:15:40;5.20;99.90
37844;DHT22;63793;57.632;18.292;2023-02-28T15:21:29;5.20;99.90
37844;DHT22;63793;57.632;18.292;2023-02-28T15:24:07;5.10;99.90
37844;DHT22;63793;57.632;18.292;2023-02-28T15:26:39;4.90;99.90
37844;DHT22;63793;57.632;18.292;2023-02-28T15:29:15;4.80;99.90
37844;DHT22;63793;57.632;18.292;2023-02-28T15:31:48;4.80;99.90
37844;DHT22;63793;57.632;18.292;2023-02-28T15:34:38;4.80;99.90
37844;DHT22;63793;57.632;18.292;2023-02-28T15:37:39;4.70;99.90
37844;DHT22;63793;57.632;18.292;2023-02-28T15:40:30;4.70;99.90
37844;DHT22;63793;57.632;18.292;2023-02-28T15:48:22;4.50;99.90
37844;DHT22;63793;57.632;18.292;2023-02-28T15:51:01;4.50;99.90
37844;DHT22;63793;57.632;18.292;2023-02-28T15:53:32;4.40;99.90
37844;DHT22;63793;57.632;18.292;2023-02-28T15:56:35;4.40;99.90
37844;DHT22;63793;57.632;18.292;2023-02-28T15:59:02;4.30;99.90
37844;DHT22;63793;57.632;18.292;2023-02-28T16:01:31;4.20;99.90
37844;DHT22;63793;57.632;18.292;2023-02-28T16:04:13;4.20;99.90
37844;DHT22;63793;57.632;18.292;2023-02-28T16:06:42;4.10;99.90
37844;DHT22;63793;57.632;18.292;2023-02-28T16:09:14;4.10;99.90
37844;DHT22;63793;57.632;18.292;2023-02-28T16:11:50;4.00;99.90
37844;DHT22;63793;57.632;18.292;2023-02-28T16:14:23;4.00;99.90
37844;DHT22;63793;57.632;18.292;2023-02-28T16:16:55;4.00;99.90
37844;DHT22;63793;57.632;18.292;2023-02-28T16:19:23;3.90;99.90
37844;DHT22;63793;57.632;18.292;2023-02-28T16:21:50;3.80;99.90
37844;DHT22;63793;57.632;18.292;2023-02-28T16:24:17;3.90;99.90
37844;DHT22;63793;57.632;18.292;2023-02-28T16:26:49;3.90;99.90
37844;DHT22;63793;57.632;18.292;2023-02-28T16:29:23;3.80;99.90
37844;DHT22;63793;57.632;18.292;2023-02-28T16:31:51;3.80;99.90
37844;DHT22;63793;57.632;18.292;2023-02-28T16:34:18;3.80;99.90
37844;DHT22;63793;57.632;18.292;2023-02-28T16:36:47;3.80;99.90
37844;DHT22;63793;57.632;18.292;2023-02-28T16:39:14;3.80;99.90
37844;DHT22;63793;57.632;18.292;2023-02-28T16:41:45;3.80;99.90
37844;DHT22;63793;57.632;18.292;2023-02-28T16:44:29;3.70;99.90
37844;DHT22;63793;57.632;18.292;2023-02-28T16:47:00;3.70;99.90
37844;DHT22;63793;57.632;18.292;2023-02-28T16:49:28;3.70;99.90
37844;DHT22;63793;57.632;18.292;2023-02-28T16:51:55;3.70;99.90
37844;DHT22;63793;57.632;18.292;2023-02-28T16:54:22;3.70;99.90
37844;DHT22;63793;57.632;18.292;2023-02-28T16:56:49;3.60;99.90
37844;DHT22;63793;57.632;18.292;2023-02-28T16:59:21;3.60;99.90
37844;DHT22;63793;57.632;18.292;2023-02-28T17:01:50;3.60;99.90
37844;DHT22;63793;57.632;18.292;2023-02-28T17:04:17;3.60;99.90
37844;DHT22;63793;57.632;18.292;2023-02-28T17:06:44;3.60;99.90
37844;DHT22;63793;57.632;18.292;2023-02-28T17:09:16;3.50;99.90
37844;DHT22;63793;57.632;18.292;2023-02-28T17:11:44;3.50;99.90
37844;DHT22;63793;57.632;18.292;2023-02-28T17:14:11;3.40;99.90
37844;DHT22;63793;57.632;18.292;2023-02-28T17:16:38;3.40;99.90
37844;DHT22;63793;57.632;18.292;2023-02-28T17:19:14;3.40;99.90
37844;DHT22;63793;57.632;18.292;2023-02-28T17:21:42;3.40;99.90
37844;DHT22;63793;57.632;18.292;2023-02-28T17:24:10;3.40;99.90
37844;DHT22;63793;57.632;18.292;2023-02-28T17:26:47;3.30;99.90
37844;DHT22;63793;57.632;18.292;2023-02-28T17:29:20;3.40;99.90
37844;DHT22;63793;57.632;18.292;2023-02-28T17:31:47;3.30;99.90
37844;DHT22;63793;57.632;18.292;2023-02-28T17:34:14;3.20;99.90
37844;DHT22;63793;57.632;18.292;2023-02-28T17:36:49;3.20;99.90
37844;DHT22;63793;57.632;18.292;2023-02-28T17:39:18;3.10;99.90
37844;DHT22;63793;57.632;18.292;2023-02-28T17:41:54;3.00;99.90
37844;DHT22;63793;57.632;18.292;2023-02-28T17:44:21;3.00;99.90
37844;DHT22;63793;57.632;18.292;2023-02-28T17:46:49;2.90;99.90
37844;DHT22;63793;57.632;18.292;2023-02-28T17:49:20;2.90;99.90
37844;DHT22;63793;57.632;18.292;2023-02-28T17:51:47;3.10;99.90
37844;DHT22;63793;57.632;18.292;2023-02-28T17:54:14;3.30;99.90
37844;DHT22;63793;57.632;18.292;2023-02-28T17:56:44;3.30;99.90
37844;DHT22;63793;57.632;18.292;2023-02-28T17:59:12;3.30;99.90
37844;DHT22;63793;57.632;18.292;2023-02-28T18:01:39;3.30;99.90
37844;DHT22;63793;57.632;18.292;2023-02-28T18:04:06;3.30;99.90
37844;DHT22;63793;57.632;18.292;2023-02-28T18:09:19;3.40;99.90
37844;DHT22;63793;57.632;18.292;2023-02-28T18:11:50;3.50;99.90
37844;DHT22;63793;57.632;18.292;2023-02-28T18:14:19;3.50;99.90
37844;DHT22;63793;57.632;18.292;2023-02-28T18:16:46;3.50;99.90
37844;DHT22;63793;57.632;18.292;2023-02-28T18:19:14;3.50;99.90